Time,TemperatureF,DewpointF,PressureIn,WindDirection,WindDirectionDegrees,WindSpeedMPH,WindSpeedGustMPH,Humidity,HourlyPrecipIn,Conditions,Clouds,dailyrainin,SolarRadiationWatts/m^2,SoftwareType,DateUTC
2013-02-20 00:00:00,18.9,12.9,29.91,WNW,298,19.6,19.6,77,0.00,CLR,,0.18,0.0,WeatherDisplay:10.37,2013-02-20 05:00:00,
2013-02-20 00:05:00,18.8,12.8,29.91,West,273,13.0,13.2,77,0.00,RA,,0.00,0.0,WeatherDisplay:10.37,2013-02-20 05:05:00,
2013-02-20 00:10:00,18.8,13.1,29.92,West,281,16.1,16.1,78,0.00,CLR,,0.00,0.0,WeatherDisplay:10.37,2013-02-20 05:10:00,
2013-02-20 00:15:00,18.8,13.1,29.91,WNW,286,17.0,17.0,78,0.00,CLR,,0.00,0.0,WeatherDisplay:10.37,2013-02-20 05:15:00,
2013-02-20 00:20:00,18.8,12.8,29.92,WNW,291,19.6,19.6,77,0.00,CLR,,0.00,0.0,WeatherDisplay:10.37,2013-02-20 05:20:00,
2013-02-20 00:25:00,18.8,13.1,29.92,WSW,238,18.4,18.4,78,0.00,CLR,,0.00,0.0,WeatherDisplay:10.37,2013-02-20 05:25:00,
2013-02-20 00:30:00,18.8,13.1,29.92,WSW,242,13.8,13.8,78,0.00,CLR,,0.00,0.0,WeatherDisplay:10.37,2013-02-20 05:30:00,
2013-02-20 00:35:00,18.8,13.1,29.92,WNW,285,18.4,18.4,78,0.00,CLR,,0.00,0.0,WeatherDisplay:10.37,2013-02-20 05:35:00,
2013-02-20 00:40:00,18.8,12.8,29.92,West,276,19.6,19.6,77,0.00,CLR,,0.00,0.0,WeatherDisplay:10.37,2013-02-20 05:40:00,
2013-02-20 00:45:00,18.8,12.8,29.92,West,281,16.1,16.1,77,0.00,CLR,,0.00,0.0,WeatherDisplay:10.37,2013-02-20 05:45:00,
2013-02-20 00:50:00,18.8,12.8,29.92,WSW,246,17.3,17.3,77,0.00,CLR,,0.00,0.0,WeatherDisplay:10.37,2013-02-20 05:50:00,
2013-02-20 00:55:00,18.7,12.7,29.93,West,277,19.6,19.6,77,0.00,CLR,,0.00,0.0,WeatherDisplay:10.37,2013-02-20 05:55:00,
2013-02-20 01:00:00,18.7,12.7,29.93,WNW,301,19.6,19.6,77,0.00,CLR,,0.00,0.0,WeatherDisplay:10.37,2013-02-20 06:00:00,
2013-02-20 01:05:00,18.7,12.7,29.93,WNW,292,25.3,25.3,77,0.00,CLR,,0.00,0.0,WeatherDisplay:10.37,2013-02-20 06:05:00,
2013-02-20 01:10:00,18.7,13.0,29.93,WNW,288,20.0,20.0,78,0.00,CLR,,0.00,0.0,WeatherDisplay:10.37,2013-02-20 06:10:00,
2013-02-20 01:15:00,18.6,12.9,29.93,WNW,298,13.8,13.8,78,0.00,CLR,,0.00,0.0,WeatherDisplay:10.37,2013-02-20 06:15:00,
2013-02-20 01:20:00,18.5,12.8,29.93,West,262,16.0,16.0,78,0.00,CLR,,0.00,0.0,WeatherDisplay:10.37,2013-02-20 06:20:00,
2013-02-20 01:25:00,18.5,12.8,29.93,West,272,17.3,17.3,78,0.00,CLR,,0.00,0.0,WeatherDisplay:10.37,2013-02-20 06:25:00,
2013-02-20 01:31:00,18.5,12.8,29.94,WNW,284,18.4,18.4,78,0.00,CLR,,0.00,0.0,WeatherDisplay:10.37,2013-02-20 06:31:00,
2013-02-20 01:36:00,18.5,12.8,29.93,WNW,295,23.0,23.0,78,0.00,CLR,,0.00,0.0,WeatherDisplay:10.37,2013-02-20 06:36:00,
2013-02-20 01:41:00,18.5,12.8,29.94,West,275,11.5,11.5,78,0.00,CLR,,0.00,0.0,WeatherDisplay:10.37,2013-02-20 06:41:00,
2013-02-20 01:46:00,18.6,12.9,29.94,West,280,19.6,19.6,78,0.00,CLR,,0.00,0.0,WeatherDisplay:10.37,2013-02-20 06:46:00,
2013-02-20 01:51:00,18.6,12.9,29.94,WNW,302,16.1,16.1,78,0.00,CLR,,0.00,0.0,WeatherDisplay:10.37,2013-02-20 06:51:00,
2013-02-20 01:56:00,18.6,12.9,29.94,SW,235,15.0,15.0,78,0.00,CLR,,0.00,0.0,WeatherDisplay:10.37,2013-02-20 06:56:00,
2013-02-20 02:01:00,18.7,13.0,29.95,West,281,16.1,16.1,78,0.00,CLR,,0.00,0.0,WeatherDisplay:10.37,2013-02-20 07:01:00,
2013-02-20 02:06:00,18.7,13.0,29.95,West,265,21.9,21.9,78,0.00,CLR,,0.00,0.0,WeatherDisplay:10.37,2013-02-20 07:06:00,
2013-02-20 02:11:00,18.7,13.0,29.95,WNW,287,12.7,12.7,78,0.00,CLR,,0.00,0.0,WeatherDisplay:10.37,2013-02-20 07:11:00,
2013-02-20 02:16:00,18.7,13.6,29.95,WNW,285,15.0,15.0,80,0.00,CLR,,0.00,0.0,WeatherDisplay:10.37,2013-02-20 07:16:00,
2013-02-20 02:21:00,18.6,14.0,29.95,WSW,247,16.1,16.1,82,0.00,CLR,,0.00,0.0,WeatherDisplay:10.37,2013-02-20 07:21:00,
2013-02-20 02:26:00,18.6,14.0,29.95,West,280,9.2,9.2,82,0.00,CLR,,0.00,0.0,WeatherDisplay:10.37,2013-02-20 07:26:00,
2013-02-20 02:31:00,18.6,14.0,29.95,WSW,237,12.7,12.7,82,0.00,CLR,,0.00,0.0,WeatherDisplay:10.37,2013-02-20 07:31:00,
2013-02-20 02:36:00,18.6,13.7,29.96,West,270,19.6,19.6,81,0.00,CLR,,0.00,0.0,WeatherDisplay:10.37,2013-02-20 07:36:00,
2013-02-20 02:41:00,18.5,13.6,29.96,WNW,293,16.1,16.1,81,0.00,CLR,,0.00,0.0,WeatherDisplay:10.37,2013-02-20 07:41:00,
2013-02-20 02:46:00,18.4,13.5,29.96,SW,235,15.0,15.0,81,0.00,CLR,,0.00,0.0,WeatherDisplay:10.37,2013-02-20 07:46:00,
2013-02-20 02:51:00,18.4,13.3,29.97,WNW,289,20.7,20.7,80,0.00,CLR,,0.00,0.0,WeatherDisplay:10.37,2013-02-20 07:51:00,
2013-02-20 02:56:00,18.3,12.9,29.97,NW,319,16.1,16.1,79,0.00,CLR,,0.00,0.0,WeatherDisplay:10.37,2013-02-20 07:56:00,
2013-02-20 03:01:00,18.2,12.5,29.97,West,271,20.7,20.7,78,0.00,CLR,,0.00,0.0,WeatherDisplay:10.37,2013-02-20 08:01:00,
2013-02-20 03:06:00,18.2,12.5,29.97,NW,304,12.7,12.7,78,0.00,CLR,,0.00,0.0,WeatherDisplay:10.37,2013-02-20 08:06:00,
2013-02-20 03:11:00,18.2,12.2,29.97,NW,315,16.1,16.1,77,0.00,CLR,,0.00,0.0,WeatherDisplay:10.37,2013-02-20 08:11:00,
2013-02-20 03:16:00,18.2,12.2,29.97,West,264,20.7,20.7,77,0.00,CLR,,0.00,0.0,WeatherDisplay:10.37,2013-02-20 08:16:00,
2013-02-20 03:21:00,18.1,12.1,29.97,WSW,239,18.4,18.4,77,0.00,CLR,,0.00,0.0,WeatherDisplay:10.37,2013-02-20 08:21:00,
2013-02-20 03:26:00,18.0,11.7,29.98,SW,227,20.7,20.7,76,0.00,CLR,,0.00,0.0,WeatherDisplay:10.37,2013-02-20 08:26:00,
2013-02-20 03:31:00,17.9,11.6,29.98,WNW,283,26.5,26.5,76,0.00,CLR,,0.00,0.0,WeatherDisplay:10.37,2013-02-20 08:31:00,
2013-02-20 03:36:00,17.9,11.6,29.98,WNW,302,18.4,18.4,76,0.00,CLR,,0.00,0.0,WeatherDisplay:10.37,2013-02-20 08:36:00,
2013-02-20 03:41:00,17.8,11.8,29.98,West,281,11.5,11.5,77,0.00,CLR,,0.00,0.0,WeatherDisplay:10.37,2013-02-20 08:41:00,
2013-02-20 03:46:00,17.8,11.5,29.98,NW,309,23.0,23.0,76,0.00,CLR,,0.00,0.0,WeatherDisplay:10.37,2013-02-20 08:46:00,
2013-02-20 03:51:00,17.7,10.8,29.99,WNW,288,19.6,19.6,74,0.00,CLR,,0.00,0.0,WeatherDisplay:10.37,2013-02-20 08:51:00,
2013-02-20 03:56:00,17.7,10.8,29.99,West,280,17.3,17.3,74,0.00,CLR,,0.00,0.0,WeatherDisplay:10.37,2013-02-20 08:56:00,
2013-02-20 04:01:00,17.5,10.6,29.99,WNW,302,19.6,19.6,74,0.00,CLR,,0.00,0.0,WeatherDisplay:10.37,2013-02-20 09:01:00,
2013-02-20 04:06:00,17.4,10.8,29.99,NNW,328,13.0,13.0,75,0.00,CLR,,0.00,0.0,WeatherDisplay:10.37,2013-02-20 09:06:00,
2013-02-20 04:11:00,17.2,10.9,30.00,WNW,284,21.9,21.9,76,0.00,CLR,,0.00,0.0,WeatherDisplay:10.37,2013-02-20 09:11:00,
2013-02-20 04:16:00,17.0,11.0,30.00,WNW,289,19.6,19.6,77,0.00,CLR,,0.00,0.0,WeatherDisplay:10.37,2013-02-20 09:16:00,
2013-02-20 04:21:00,17.0,11.0,30.00,WNW,284,15.0,15.0,77,0.00,CLR,,0.00,0.0,WeatherDisplay:10.37,2013-02-20 09:21:00,
2013-02-20 04:26:00,16.8,10.5,30.00,West,268,16.1,16.1,76,0.00,CLR,,0.00,0.0,WeatherDisplay:10.37,2013-02-20 09:26:00,
2013-02-20 04:31:00,16.8,10.2,30.00,West,268,16.1,16.1,75,0.00,CLR,,0.00,0.0,WeatherDisplay:10.37,2013-02-20 09:31:00,
2013-02-20 04:36:00,16.7,9.5,30.00,NW,314,13.8,13.8,73,0.00,CLR,,0.00,0.0,WeatherDisplay:10.37,2013-02-20 09:36:00,
2013-02-20 04:41:00,16.6,9.8,30.00,WNW,290,14.0,14.0,74,0.00,CLR,,0.00,0.0,WeatherDisplay:10.37,2013-02-20 09:41:00,
2013-02-20 04:46:00,16.6,9.8,30.01,West,261,11.5,11.5,74,0.00,CLR,,0.00,0.0,WeatherDisplay:10.37,2013-02-20 09:46:00,
2013-02-20 04:51:00,16.6,9.8,30.01,West,270,12.7,12.7,74,0.00,CLR,,0.00,0.0,WeatherDisplay:10.37,2013-02-20 09:51:00,
2013-02-20 04:56:00,16.8,9.6,30.01,WNW,294,17.3,17.3,73,0.00,CLR,,0.00,0.0,WeatherDisplay:10.37,2013-02-20 09:56:00,
2013-02-20 05:01:00,16.8,9.6,30.01,WNW,284,10.4,10.4,73,0.00,CLR,,0.00,0.0,WeatherDisplay:10.37,2013-02-20 10:01:00,
2013-02-20 05:06:00,17.0,9.8,30.02,NW,319,13.8,13.8,73,0.00,CLR,,0.00,0.0,WeatherDisplay:10.37,2013-02-20 10:06:00,
2013-02-20 05:11:00,17.1,10.2,30.02,West,259,15.0,15.0,74,0.00,CLR,,0.00,0.0,WeatherDisplay:10.37,2013-02-20 10:11:00,
2013-02-20 05:16:00,17.2,10.6,30.02,WSW,239,18.4,18.4,75,0.00,CLR,,0.00,0.0,WeatherDisplay:10.37,2013-02-20 10:16:00,
2013-02-20 05:21:00,17.2,10.6,30.02,West,269,19.0,19.0,75,0.00,CLR,,0.00,0.0,WeatherDisplay:10.37,2013-02-20 10:21:00,
2013-02-20 05:26:00,17.2,10.6,30.02,NW,304,19.6,19.6,75,0.00,CLR,,0.00,0.0,WeatherDisplay:10.37,2013-02-20 10:26:00,
2013-02-20 05:31:00,17.2,10.6,30.03,WSW,250,13.8,13.8,75,0.00,CLR,,0.00,0.0,WeatherDisplay:10.37,2013-02-20 10:31:00,
2013-02-20 05:36:00,17.2,10.9,30.03,WNW,292,18.4,18.4,76,0.00,CLR,,0.00,0.0,WeatherDisplay:10.37,2013-02-20 10:36:00,
2013-02-20 05:41:00,17.3,11.0,30.03,West,267,18.4,18.4,76,0.00,CLR,,0.00,0.0,WeatherDisplay:10.37,2013-02-20 10:41:00,
2013-02-20 05:46:00,17.2,10.9,30.03,West,275,18.4,18.4,76,0.00,CLR,,0.00,0.0,WeatherDisplay:10.37,2013-02-20 10:46:00,
2013-02-20 05:51:00,17.3,11.0,30.03,West,281,19.6,19.6,76,0.00,CLR,,0.00,0.0,WeatherDisplay:10.37,2013-02-20 10:51:00,
2013-02-20 05:56:00,17.3,10.7,30.03,WNW,296,19.6,19.6,75,0.00,CLR,,0.00,0.0,WeatherDisplay:10.37,2013-02-20 10:56:00,
2013-02-20 06:01:00,17.3,10.7,30.03,WNW,293,19.6,19.6,75,0.00,CLR,,0.00,0.0,WeatherDisplay:10.37,2013-02-20 11:01:00,
2013-02-20 06:06:00,17.2,10.6,30.04,NNW,331,19.0,19.0,75,0.00,CLR,,0.00,0.0,WeatherDisplay:10.37,2013-02-20 11:06:00,
2013-02-20 06:11:00,17.2,10.6,30.04,WNW,301,24.2,24.2,75,0.00,CLR,,0.00,0.0,WeatherDisplay:10.37,2013-02-20 11:11:00,
2013-02-20 06:16:00,17.2,10.3,30.04,West,272,19.6,19.6,74,0.00,CLR,,0.00,0.0,WeatherDisplay:10.37,2013-02-20 11:16:00,
2013-02-20 06:21:00,17.2,10.6,30.04,WSW,245,12.7,12.7,75,0.00,CLR,,0.00,0.0,WeatherDisplay:10.37,2013-02-20 11:21:00,
2013-02-20 06:26:00,17.1,10.5,30.04,West,271,18.4,18.4,75,0.00,CLR,,0.00,0.0,WeatherDisplay:10.37,2013-02-20 11:26:00,
2013-02-20 06:31:00,17.1,10.2,30.05,WNW,292,13.0,13.0,74,0.00,CLR,,0.00,0.0,WeatherDisplay:10.37,2013-02-20 11:31:00,
2013-02-20 06:36:00,17.1,10.5,30.05,WNW,296,16.1,16.1,75,0.00,CLR,,0.00,0.0,WeatherDisplay:10.37,2013-02-20 11:36:00,
2013-02-20 06:41:00,17.1,10.5,30.05,West,274,17.3,17.3,75,0.00,CLR,,0.00,0.0,WeatherDisplay:10.37,2013-02-20 11:41:00,
2013-02-20 06:46:00,17.1,10.5,30.05,WNW,287,16.1,16.1,75,0.00,CLR,,0.00,0.0,WeatherDisplay:10.37,2013-02-20 11:46:00,
2013-02-20 06:51:00,17.0,10.4,30.05,West,274,19.6,19.6,75,0.00,CLR,,0.00,0.0,WeatherDisplay:10.37,2013-02-20 11:51:00,
2013-02-20 06:56:00,16.9,10.3,30.05,West,269,12.0,12.0,75,0.00,CLR,,0.00,0.0,WeatherDisplay:10.37,2013-02-20 11:56:00,
2013-02-20 07:01:00,16.7,10.1,30.05,West,274,16.1,16.1,75,0.00,CLR,,0.00,0.0,WeatherDisplay:10.37,2013-02-20 12:01:00,
2013-02-20 07:06:00,16.6,10.1,30.06,NW,317,12.0,12.0,75,0.00,CLR,,0.00,0.0,WeatherDisplay:10.37,2013-02-20 12:06:00,
2013-02-20 07:11:00,16.6,10.1,30.06,NW,320,18.4,18.4,75,0.00,CLR,,0.00,0.0,WeatherDisplay:10.37,2013-02-20 12:11:00,
2013-02-20 07:16:00,16.4,10.2,30.06,WNW,294,19.6,19.6,76,0.00,CLR,,0.00,0.0,WeatherDisplay:10.37,2013-02-20 12:16:00,
2013-02-20 07:21:00,16.4,10.2,30.06,WNW,296,17.3,17.3,76,0.00,CLR,,0.00,0.0,WeatherDisplay:10.37,2013-02-20 12:21:00,
2013-02-20 07:26:00,16.4,10.2,30.07,WNW,293,19.6,19.6,76,0.00,CLR,,0.00,0.0,WeatherDisplay:10.37,2013-02-20 12:26:00,
2013-02-20 07:31:00,16.4,10.2,30.07,West,267,18.4,18.4,76,0.00,CLR,,0.00,7.0,WeatherDisplay:10.37,2013-02-20 12:31:00,
2013-02-20 07:36:00,16.4,10.2,30.07,NW,316,18.4,18.4,76,0.00,CLR,,0.00,9.0,WeatherDisplay:10.37,2013-02-20 12:36:00,
2013-02-20 07:41:00,16.6,10.3,30.08,WNW,287,16.1,16.1,76,0.00,CLR,,0.00,12.0,WeatherDisplay:10.37,2013-02-20 12:41:00,
2013-02-20 07:46:00,16.6,10.3,30.08,WNW,282,19.6,19.6,76,0.00,CLR,,0.00,19.0,WeatherDisplay:10.37,2013-02-20 12:46:00,
2013-02-20 07:51:00,16.7,10.4,30.08,WSW,249,16.1,16.1,76,0.00,CLR,,0.00,21.0,WeatherDisplay:10.37,2013-02-20 12:51:00,
2013-02-20 07:56:00,16.7,10.4,30.08,WNW,286,10.4,10.4,76,0.00,CLR,,0.00,19.0,WeatherDisplay:10.37,2013-02-20 12:56:00,
2013-02-20 08:01:00,16.7,10.4,30.08,WNW,290,12.7,12.7,76,0.00,CLR,,0.00,32.0,WeatherDisplay:10.37,2013-02-20 13:01:00,
2013-02-20 08:06:00,16.8,10.5,30.08,WNW,295,19.6,19.6,76,0.00,CLR,,0.00,33.0,WeatherDisplay:10.37,2013-02-20 13:06:00,
2013-02-20 08:11:00,16.9,10.3,30.09,WNW,287,12.7,12.7,75,0.00,CLR,,0.00,46.0,WeatherDisplay:10.37,2013-02-20 13:11:00,
2013-02-20 08:16:00,17.0,10.4,30.09,West,273,16.1,16.1,75,0.00,CLR,,0.00,44.0,WeatherDisplay:10.37,2013-02-20 13:16:00,
2013-02-20 08:21:00,17.0,10.4,30.09,WNW,290,19.6,19.6,75,0.00,CLR,,0.00,56.0,WeatherDisplay:10.37,2013-02-20 13:21:00,
2013-02-20 08:26:00,17.2,10.6,30.09,West,272,13.8,13.8,75,0.00,CLR,,0.00,72.0,WeatherDisplay:10.37,2013-02-20 13:26:00,
2013-02-20 08:31:00,17.4,10.8,30.09,West,279,14.0,14.0,75,0.00,CLR,,0.00,42.0,WeatherDisplay:10.37,2013-02-20 13:31:00,
2013-02-20 08:36:00,17.6,11.0,30.10,West,273,16.0,16.0,75,0.00,CLR,,0.00,49.0,WeatherDisplay:10.37,2013-02-20 13:36:00,
2013-02-20 08:41:00,17.6,10.7,30.10,NW,309,19.6,19.6,74,0.00,CLR,,0.00,74.0,WeatherDisplay:10.37,2013-02-20 13:41:00,
2013-02-20 08:46:00,17.8,11.2,30.10,NW,309,16.0,16.0,75,0.00,CLR,,0.00,90.0,WeatherDisplay:10.37,2013-02-20 13:46:00,
2013-02-20 08:51:00,17.9,11.0,30.10,NW,310,24.2,24.2,74,0.00,CLR,,0.00,88.0,WeatherDisplay:10.37,2013-02-20 13:51:00,
2013-02-20 08:56:00,18.0,11.1,30.09,West,277,15.0,15.0,74,0.00,CLR,,0.00,98.0,WeatherDisplay:10.37,2013-02-20 13:56:00,
2013-02-20 09:01:00,18.2,11.0,30.10,NW,304,20.0,20.0,73,0.00,OVC,,0.00,91.0,WeatherDisplay:10.37,2013-02-20 14:01:00,
2013-02-20 09:06:00,18.1,10.9,30.10,NW,312,23.0,23.0,73,0.00,OVC,,0.00,88.0,WeatherDisplay:10.37,2013-02-20 14:06:00,
2013-02-20 09:11:00,18.1,10.9,30.10,West,275,18.4,18.4,73,0.00,OVC,,0.00,98.0,WeatherDisplay:10.37,2013-02-20 14:11:00,
2013-02-20 09:16:00,18.3,11.1,30.10,NW,315,16.0,16.0,73,0.00,OVC,,0.00,148.0,WeatherDisplay:10.37,2013-02-20 14:16:00,
2013-02-20 09:21:00,18.5,11.3,30.10,NW,313,16.1,16.1,73,0.00,OVC,,0.00,105.0,WeatherDisplay:10.37,2013-02-20 14:21:00,
2013-02-20 09:26:00,18.6,11.7,30.10,NW,306,21.0,21.0,74,0.00,OVC,,0.00,104.0,WeatherDisplay:10.37,2013-02-20 14:26:00,
2013-02-20 09:31:00,18.6,11.1,30.11,NW,312,19.6,19.6,72,0.00,OVC,,0.00,113.0,WeatherDisplay:10.37,2013-02-20 14:31:00,
2013-02-20 09:36:00,18.6,11.1,30.10,NW,308,21.9,21.9,72,0.00,OVC,,0.00,123.0,WeatherDisplay:10.37,2013-02-20 14:36:00,
2013-02-20 09:41:00,18.6,11.4,30.11,NW,317,19.0,19.0,73,0.00,OVC,,0.00,113.0,WeatherDisplay:10.37,2013-02-20 14:41:00,
2013-02-20 09:46:00,18.7,11.5,30.11,NW,313,21.9,21.9,73,0.00,OVC,,0.00,125.0,WeatherDisplay:10.37,2013-02-20 14:46:00,
2013-02-20 09:51:00,18.8,11.9,30.11,West,263,13.8,13.8,74,0.00,OVC,,0.00,125.0,WeatherDisplay:10.37,2013-02-20 14:51:00,
2013-02-20 09:56:00,18.9,12.0,30.11,WNW,283,19.6,19.6,74,0.00,OVC,,0.00,120.0,WeatherDisplay:10.37,2013-02-20 14:56:00,
2013-02-20 10:01:00,18.9,12.0,30.11,NW,310,12.7,12.7,74,0.00,OVC,,0.00,160.0,WeatherDisplay:10.37,2013-02-20 15:01:00,
2013-02-20 10:06:00,19.2,12.3,30.11,NW,311,12.0,12.0,74,0.00,OVC,,0.00,155.0,WeatherDisplay:10.37,2013-02-20 15:06:00,
2013-02-20 10:11:00,19.2,12.3,30.11,NW,306,20.7,20.7,74,0.00,OVC,,0.00,174.0,WeatherDisplay:10.37,2013-02-20 15:11:00,
2013-02-20 10:16:00,19.2,12.6,30.12,NNW,331,17.3,17.3,75,0.00,OVC,,0.00,142.0,WeatherDisplay:10.37,2013-02-20 15:16:00,
2013-02-20 10:21:00,19.1,12.5,30.12,NW,317,17.3,17.3,75,0.00,OVC,,0.00,155.0,WeatherDisplay:10.37,2013-02-20 15:21:00,
2013-02-20 10:26:00,19.3,12.7,30.12,NW,315,20.7,20.7,75,0.00,OVC,,0.00,176.0,WeatherDisplay:10.37,2013-02-20 15:26:00,
2013-02-20 10:31:00,19.3,12.4,30.12,WNW,302,23.0,23.0,74,0.00,OVC,,0.00,186.0,WeatherDisplay:10.37,2013-02-20 15:31:00,
2013-02-20 10:36:00,19.3,12.4,30.12,WNW,289,21.9,21.9,74,0.00,OVC,,0.00,206.0,WeatherDisplay:10.37,2013-02-20 15:36:00,
2013-02-20 10:41:00,19.5,12.6,30.12,West,261,16.1,16.1,74,0.00,OVC,,0.00,216.0,WeatherDisplay:10.37,2013-02-20 15:41:00,
2013-02-20 10:46:00,19.7,12.4,30.12,NW,324,19.6,19.6,73,0.00,OVC,,0.00,237.0,WeatherDisplay:10.37,2013-02-20 15:46:00,
2013-02-20 10:51:00,19.8,12.5,30.12,NW,309,19.6,19.6,73,0.00,OVC,,0.00,237.0,WeatherDisplay:10.37,2013-02-20 15:51:00,
2013-02-20 10:56:00,20.0,12.7,30.13,NNW,334,12.7,12.7,73,0.00,OVC,,0.00,258.0,WeatherDisplay:10.37,2013-02-20 15:56:00,
2013-02-20 11:01:00,20.1,13.1,30.13,WNW,291,17.0,18.6,74,0.00,OVC,,0.00,239.0,WeatherDisplay:10.37,2013-02-20 16:01:00,
2013-02-20 11:06:00,19.9,12.6,30.13,WNW,292,11.5,11.5,73,0.00,OVC,,0.00,232.0,WeatherDisplay:10.37,2013-02-20 16:06:00,
2013-02-20 11:11:00,20.0,12.1,30.13,WNW,300,17.3,17.7,71,0.00,OVC,,0.00,216.0,WeatherDisplay:10.37,2013-02-20 16:11:00,
2013-02-20 11:16:00,20.0,11.8,30.13,NW,309,17.3,17.3,70,0.00,OVC,,0.00,241.0,WeatherDisplay:10.37,2013-02-20 16:16:00,
2013-02-20 11:21:00,20.3,12.4,30.14,WNW,302,11.5,11.5,71,0.00,OVC,,0.00,290.0,WeatherDisplay:10.37,2013-02-20 16:21:00,
2013-02-20 11:26:00,20.4,11.8,30.14,WNW,296,19.6,19.6,69,0.00,OVC,,0.00,195.0,WeatherDisplay:10.37,2013-02-20 16:26:00,
2013-02-20 11:31:00,20.2,12.0,30.14,WNW,293,20.7,20.7,70,0.00,OVC,,0.00,225.0,WeatherDisplay:10.37,2013-02-20 16:31:00,
2013-02-20 11:36:00,20.3,11.7,30.14,WNW,290,20.7,20.7,69,0.00,OVC,,0.00,223.0,WeatherDisplay:10.37,2013-02-20 16:36:00,
2013-02-20 11:41:00,20.2,11.7,30.14,WNW,292,18.0,18.0,69,0.00,OVC,,0.00,253.0,WeatherDisplay:10.37,2013-02-20 16:41:00,
2013-02-20 11:46:00,20.4,12.2,30.14,West,281,15.0,15.0,70,0.00,OVC,,0.00,195.0,WeatherDisplay:10.37,2013-02-20 16:46:00,
2013-02-20 11:52:00,20.3,11.7,30.14,WNW,296,16.1,16.1,69,0.00,OVC,,0.00,207.0,WeatherDisplay:10.37,2013-02-20 16:52:00,
2013-02-20 11:57:00,20.4,11.8,30.14,NW,309,18.4,18.4,69,0.00,OVC,,0.00,225.0,WeatherDisplay:10.37,2013-02-20 16:57:00,
2013-02-20 12:02:00,20.4,11.5,30.14,NW,318,12.7,12.7,68,0.00,OVC,,0.00,227.0,WeatherDisplay:10.37,2013-02-20 17:02:00,
2013-02-20 12:07:00,20.8,11.6,30.14,NNW,330,19.6,19.6,67,0.00,OVC,,0.00,220.0,WeatherDisplay:10.37,2013-02-20 17:07:00,
2013-02-20 12:12:00,20.8,12.2,30.15,NW,321,17.3,17.3,69,0.00,OVC,,0.00,260.0,WeatherDisplay:10.37,2013-02-20 17:12:00,
2013-02-20 12:17:00,21.1,12.5,30.15,West,259,11.5,11.5,69,0.00,OVC,,0.00,258.0,WeatherDisplay:10.37,2013-02-20 17:17:00,
2013-02-20 12:22:00,21.1,12.2,30.15,NW,311,15.0,15.0,68,0.00,OVC,,0.00,239.0,WeatherDisplay:10.37,2013-02-20 17:22:00,
2013-02-20 12:27:00,21.0,11.8,30.15,WNW,298,19.6,19.6,67,0.00,OVC,,0.00,278.0,WeatherDisplay:10.37,2013-02-20 17:27:00,
2013-02-20 12:32:00,21.1,12.2,30.15,NW,321,13.8,13.8,68,0.00,OVC,,0.00,221.0,WeatherDisplay:10.37,2013-02-20 17:32:00,
2013-02-20 12:37:00,21.3,12.0,30.15,NNW,340,17.3,17.3,67,0.00,OVC,,0.00,255.0,WeatherDisplay:10.37,2013-02-20 17:37:00,
2013-02-20 12:42:00,21.3,12.4,30.15,West,281,19.6,19.6,68,0.00,OVC,,0.00,297.0,WeatherDisplay:10.37,2013-02-20 17:42:00,
2013-02-20 12:47:00,21.4,12.1,30.15,NW,309,13.8,13.8,67,0.00,OVC,,0.00,279.0,WeatherDisplay:10.37,2013-02-20 17:47:00,
2013-02-20 12:52:00,21.6,12.3,30.15,NW,317,13.8,13.8,67,0.00,OVC,,0.00,230.0,WeatherDisplay:10.37,2013-02-20 17:52:00,
2013-02-20 12:57:00,21.7,12.1,30.15,NW,315,11.5,11.5,66,0.00,OVC,,0.00,265.0,WeatherDisplay:10.37,2013-02-20 17:57:00,
2013-02-20 13:02:00,22.0,12.7,30.15,NW,304,13.8,13.8,67,0.00,OVC,,0.00,195.0,WeatherDisplay:10.37,2013-02-20 18:02:00,
2013-02-20 13:07:00,21.8,12.2,30.15,WNW,299,19.0,19.0,66,0.00,OVC,,0.00,207.0,WeatherDisplay:10.37,2013-02-20 18:07:00,
2013-02-20 13:12:00,21.5,11.9,30.16,NW,306,18.4,18.4,66,0.00,OVC,,0.00,257.0,WeatherDisplay:10.37,2013-02-20 18:12:00,
2013-02-20 13:17:00,21.6,12.3,30.16,NW,321,12.7,12.7,67,0.00,OVC,,0.00,213.0,WeatherDisplay:10.37,2013-02-20 18:17:00,
2013-02-20 13:22:00,21.8,12.2,30.16,WNW,292,11.5,11.5,66,0.00,OVC,,0.00,183.0,WeatherDisplay:10.37,2013-02-20 18:22:00,
2013-02-20 13:27:00,22.0,12.4,30.16,NNW,333,15.0,15.0,66,0.00,OVC,,0.00,225.0,WeatherDisplay:10.37,2013-02-20 18:27:00,
2013-02-20 13:32:00,22.0,12.0,30.16,NW,312,11.5,11.5,65,0.00,CLR,,0.00,158.0,WeatherDisplay:10.37,2013-02-20 18:32:00,
2013-02-20 13:37:00,21.9,11.9,30.17,West,274,10.0,10.0,65,0.00,CLR,,0.00,158.0,WeatherDisplay:10.37,2013-02-20 18:37:00,
2013-02-20 13:42:00,22.0,12.4,30.17,NW,315,15.0,15.0,66,0.00,CLR,,0.00,163.0,WeatherDisplay:10.37,2013-02-20 18:42:00,
2013-02-20 13:47:00,22.0,12.4,30.16,West,280,13.8,13.8,66,0.00,CLR,,0.00,197.0,WeatherDisplay:10.37,2013-02-20 18:47:00,
2013-02-20 13:52:00,22.0,12.4,30.16,West,275,11.5,11.5,66,0.00,CLR,,0.00,158.0,WeatherDisplay:10.37,2013-02-20 18:52:00,
2013-02-20 13:57:00,22.1,12.5,30.16,NW,309,12.0,12.0,66,0.00,CLR,,0.00,181.0,WeatherDisplay:10.37,2013-02-20 18:57:00,
2013-02-20 14:02:00,22.1,12.1,30.17,WNW,290,19.6,19.6,65,0.00,CLR,,0.00,209.0,WeatherDisplay:10.37,2013-02-20 19:02:00,
2013-02-20 14:07:00,22.2,12.2,30.17,NNW,346,17.3,17.3,65,0.00,CLR,,0.00,211.0,WeatherDisplay:10.37,2013-02-20 19:07:00,
2013-02-20 14:12:00,22.4,12.4,30.17,WNW,288,10.4,10.4,65,0.00,CLR,,0.00,165.0,WeatherDisplay:10.37,2013-02-20 19:12:00,
2013-02-20 14:17:00,22.2,12.6,30.17,WNW,287,11.5,11.5,66,0.00,CLR,,0.00,146.0,WeatherDisplay:10.37,2013-02-20 19:17:00,
2013-02-20 14:22:00,22.1,12.5,30.17,West,272,13.0,13.0,66,0.00,CLR,,0.00,125.0,WeatherDisplay:10.37,2013-02-20 19:22:00,
2013-02-20 14:27:00,22.3,13.0,30.17,West,276,15.0,15.0,67,0.00,CLR,,0.00,127.0,WeatherDisplay:10.37,2013-02-20 19:27:00,
2013-02-20 14:32:00,22.3,13.0,30.17,NW,318,17.3,17.3,67,0.00,CLR,,0.00,160.0,WeatherDisplay:10.37,2013-02-20 19:32:00,
2013-02-20 14:37:00,22.1,12.5,30.17,WSW,251,17.3,17.3,66,0.00,CLR,,0.00,148.0,WeatherDisplay:10.37,2013-02-20 19:37:00,
2013-02-20 14:42:00,22.1,12.5,30.17,WSW,247,13.8,13.8,66,0.00,CLR,,0.00,174.0,WeatherDisplay:10.37,2013-02-20 19:42:00,
2013-02-20 14:47:00,22.2,12.2,30.17,WNW,289,18.4,18.4,65,0.00,CLR,,0.00,171.0,WeatherDisplay:10.37,2013-02-20 19:47:00,
2013-02-20 14:52:00,22.4,12.8,30.17,WNW,298,16.1,16.1,66,0.00,CLR,,0.00,156.0,WeatherDisplay:10.37,2013-02-20 19:52:00,
2013-02-20 14:57:00,22.5,12.8,30.17,WNW,290,17.3,17.3,66,0.00,SCT,,0.00,137.0,WeatherDisplay:10.37,2013-02-20 19:57:00,
2013-02-20 15:02:00,22.4,12.8,30.17,WNW,286,15.0,15.0,66,0.00,SCT,,0.00,125.0,WeatherDisplay:10.37,2013-02-20 20:02:00,
2013-02-20 15:07:00,22.4,13.1,30.17,WNW,292,12.7,12.7,67,0.00,BKN,,0.00,111.0,WeatherDisplay:10.37,2013-02-20 20:07:00,
2013-02-20 15:12:00,22.3,13.0,30.17,NW,314,19.6,19.6,67,0.00,BKN,,0.00,91.0,WeatherDisplay:10.37,2013-02-20 20:12:00,
2013-02-20 15:17:00,22.3,13.3,30.18,WNW,299,11.5,11.5,68,0.00,SCT,,0.00,144.0,WeatherDisplay:10.37,2013-02-20 20:17:00,
2013-02-20 15:22:00,22.6,13.6,30.17,NNW,337,6.9,6.9,68,0.00,BKN,,0.00,120.0,WeatherDisplay:10.37,2013-02-20 20:22:00,
2013-02-20 15:27:00,22.7,13.0,30.17,WNW,301,18.4,18.4,66,0.00,SCT,,0.00,135.0,WeatherDisplay:10.37,2013-02-20 20:27:00,
2013-02-20 15:32:00,22.6,12.9,30.18,WNW,292,21.9,21.9,66,0.00,SCT,,0.00,149.0,WeatherDisplay:10.37,2013-02-20 20:32:00,
2013-02-20 15:37:00,22.6,12.9,30.18,NNW,338,16.0,16.0,66,0.00,BKN,,0.00,149.0,WeatherDisplay:10.37,2013-02-20 20:37:00,
2013-02-20 15:42:00,22.7,12.7,30.18,WNW,284,17.0,17.0,65,0.00,BKN,,0.00,134.0,WeatherDisplay:10.37,2013-02-20 20:42:00,
2013-02-20 15:47:00,22.7,12.7,30.18,WNW,303,16.1,16.1,65,0.00,BKN,,0.00,135.0,WeatherDisplay:10.37,2013-02-20 20:47:00,
2013-02-20 15:52:00,22.9,13.2,30.19,WNW,288,19.6,19.6,66,0.00,BKN,,0.00,100.0,WeatherDisplay:10.37,2013-02-20 20:52:00,
2013-02-20 15:57:00,22.7,12.7,30.19,WNW,301,17.0,17.0,65,0.00,BKN,,0.00,90.0,WeatherDisplay:10.37,2013-02-20 20:57:00,
2013-02-20 16:02:00,22.7,13.4,30.19,WNW,300,19.6,19.6,67,0.00,BKN,,0.00,116.0,WeatherDisplay:10.37,2013-02-20 21:02:00,
2013-02-20 16:07:00,22.7,13.4,30.19,NW,318,16.1,16.1,67,0.00,BKN,,0.00,97.0,WeatherDisplay:10.37,2013-02-20 21:07:00,
2013-02-20 16:12:00,22.9,13.6,30.20,NNW,347,14.0,14.0,67,0.00,BKN,,0.00,90.0,WeatherDisplay:10.37,2013-02-20 21:12:00,
2013-02-20 16:17:00,22.9,13.6,30.20,WNW,290,11.5,11.5,67,0.00,BKN,,0.00,74.0,WeatherDisplay:10.37,2013-02-20 21:17:00,
2013-02-20 16:22:00,23.0,14.0,30.20,NNW,342,11.5,11.5,68,0.00,BKN,,0.00,84.0,WeatherDisplay:10.37,2013-02-20 21:22:00,
2013-02-20 16:27:00,23.1,13.8,30.21,WNW,290,13.0,13.0,67,0.00,BKN,,0.00,72.0,WeatherDisplay:10.37,2013-02-20 21:27:00,
2013-02-20 16:32:00,23.1,13.8,30.21,West,275,13.8,13.8,67,0.00,BKN,,0.00,69.0,WeatherDisplay:10.37,2013-02-20 21:32:00,
2013-02-20 16:37:00,23.1,13.8,30.21,NW,305,11.5,11.5,67,0.00,BKN,,0.00,58.0,WeatherDisplay:10.37,2013-02-20 21:37:00,
2013-02-20 16:42:00,23.1,13.8,30.22,NNW,338,10.0,10.0,67,0.00,BKN,,0.00,47.0,WeatherDisplay:10.37,2013-02-20 21:42:00,
2013-02-20 16:47:00,23.1,14.1,30.22,West,271,8.1,8.1,68,0.00,BKN,,0.00,39.0,WeatherDisplay:10.37,2013-02-20 21:47:00,
2013-02-20 16:52:00,23.1,13.8,30.22,West,276,15.0,15.0,67,0.00,BKN,,0.00,32.0,WeatherDisplay:10.37,2013-02-20 21:52:00,
2013-02-20 16:57:00,23.0,14.3,30.22,West,276,11.5,11.5,69,0.00,OVC,,0.00,26.0,WeatherDisplay:10.37,2013-02-20 21:57:00,
2013-02-20 17:02:00,22.9,13.9,30.22,WNW,290,15.0,15.0,68,0.00,BKN,,0.00,35.0,WeatherDisplay:10.37,2013-02-20 22:02:00,
2013-02-20 17:07:00,22.9,13.9,30.22,WNW,284,17.3,17.3,68,0.00,BKN,,0.00,26.0,WeatherDisplay:10.37,2013-02-20 22:07:00,
2013-02-20 17:12:00,22.8,14.1,30.22,NW,306,16.0,16.0,69,0.00,CLR,,0.00,25.0,WeatherDisplay:10.37,2013-02-20 22:12:00,
2013-02-20 17:17:00,22.9,14.2,30.22,West,261,11.5,11.5,69,0.00,CLR,,0.00,25.0,WeatherDisplay:10.37,2013-02-20 22:17:00,
2013-02-20 17:22:00,22.9,14.2,30.23,SW,236,13.8,13.8,69,0.00,CLR,,0.00,19.0,WeatherDisplay:10.37,2013-02-20 22:22:00,
2013-02-20 17:27:00,22.9,14.2,30.23,NW,308,12.7,12.7,69,0.00,CLR,,0.00,16.0,WeatherDisplay:10.37,2013-02-20 22:27:00,
2013-02-20 17:32:00,23.0,14.7,30.23,West,265,12.7,12.7,70,0.00,CLR,,0.00,12.0,WeatherDisplay:10.37,2013-02-20 22:32:00,
2013-02-20 17:37:00,23.0,14.7,30.23,WNW,294,14.0,14.0,70,0.00,CLR,,0.00,9.0,WeatherDisplay:10.37,2013-02-20 22:37:00,
2013-02-20 17:42:00,22.8,14.8,30.23,WNW,300,11.5,11.5,71,0.00,CLR,,0.00,9.0,WeatherDisplay:10.37,2013-02-20 22:42:00,
2013-02-20 17:47:00,22.8,14.8,30.23,WNW,292,13.8,13.8,71,0.00,CLR,,0.00,7.0,WeatherDisplay:10.37,2013-02-20 22:47:00,
2013-02-20 17:52:00,22.7,14.7,30.24,West,259,11.5,11.5,71,0.00,CLR,,0.00,5.0,WeatherDisplay:10.37,2013-02-20 22:52:00,
2013-02-20 17:57:00,22.7,15.0,30.23,WNW,292,13.0,13.0,72,0.00,CLR,,0.00,5.0,WeatherDisplay:10.37,2013-02-20 22:57:00,
2013-02-20 18:02:00,22.7,15.0,30.23,WNW,300,9.2,9.2,72,0.00,CLR,,0.00,0.0,WeatherDisplay:10.37,2013-02-20 23:02:00,
2013-02-20 18:07:00,22.7,15.0,30.23,WNW,300,17.3,17.3,72,0.00,CLR,,0.00,0.0,WeatherDisplay:10.37,2013-02-20 23:07:00,
2013-02-20 18:12:00,22.6,15.6,30.24,WNW,288,17.3,17.3,74,0.00,CLR,,0.00,0.0,WeatherDisplay:10.37,2013-02-20 23:12:00,
2013-02-20 18:17:00,22.5,16.1,30.24,NW,309,13.8,13.8,76,0.00,CLR,,0.00,0.0,WeatherDisplay:10.37,2013-02-20 23:17:00,
2013-02-20 18:22:00,22.4,16.0,30.24,WSW,252,11.5,11.5,76,0.00,CLR,,0.00,0.0,WeatherDisplay:10.37,2013-02-20 23:22:00,
2013-02-20 18:27:00,22.4,16.3,30.23,NW,306,11.5,11.5,77,0.00,CLR,,0.00,0.0,WeatherDisplay:10.37,2013-02-20 23:27:00,
2013-02-20 18:32:00,22.4,15.7,30.24,West,259,9.2,9.2,75,0.00,CLR,,0.00,0.0,WeatherDisplay:10.37,2013-02-20 23:32:00,
2013-02-20 18:37:00,22.5,15.8,30.23,WNW,303,12.7,12.7,75,0.00,CLR,,0.00,0.0,WeatherDisplay:10.37,2013-02-20 23:37:00,
2013-02-20 18:42:00,22.4,15.7,30.23,NNW,337,11.5,11.5,75,0.00,CLR,,0.00,0.0,WeatherDisplay:10.37,2013-02-20 23:42:00,
2013-02-20 18:47:00,22.4,15.7,30.23,NW,322,17.0,17.0,75,0.00,CLR,,0.00,0.0,WeatherDisplay:10.37,2013-02-20 23:47:00,
2013-02-20 18:52:00,22.4,15.4,30.23,NW,325,11.0,11.0,74,0.00,CLR,,0.00,0.0,WeatherDisplay:10.37,2013-02-20 23:52:00,
2013-02-20 18:57:00,22.4,15.1,30.23,NNW,332,17.3,17.3,73,0.00,CLR,,0.00,0.0,WeatherDisplay:10.37,2013-02-20 23:57:00,
2013-02-20 19:02:00,22.5,14.8,30.23,NW,324,15.0,15.0,72,0.00,CLR,,0.00,0.0,WeatherDisplay:10.37,2013-02-21 00:02:00,
2013-02-20 19:07:00,22.4,14.7,30.24,NW,304,14.0,14.0,72,0.00,CLR,,0.00,0.0,WeatherDisplay:10.37,2013-02-21 00:07:00,
2013-02-20 19:12:00,22.4,15.1,30.24,WNW,284,11.5,11.5,73,0.00,CLR,,0.00,0.0,WeatherDisplay:10.37,2013-02-21 00:12:00,
2013-02-20 19:17:00,22.4,14.7,30.23,NNW,339,17.3,17.3,72,0.00,CLR,,0.00,0.0,WeatherDisplay:10.37,2013-02-21 00:17:00,
2013-02-20 19:22:00,22.3,14.6,30.23,NW,320,13.8,13.8,72,0.00,CLR,,0.00,0.0,WeatherDisplay:10.37,2013-02-21 00:22:00,
2013-02-20 19:27:00,22.3,14.6,30.23,NW,320,14.0,14.0,72,0.00,CLR,,0.00,0.0,WeatherDisplay:10.37,2013-02-21 00:27:00,
2013-02-20 19:32:00,22.3,14.6,30.23,NNW,340,14.0,14.0,72,0.00,CLR,,0.00,0.0,WeatherDisplay:10.37,2013-02-21 00:32:00,
2013-02-20 19:37:00,22.2,14.2,30.24,NW,325,14.0,14.0,71,0.00,CLR,,0.00,0.0,WeatherDisplay:10.37,2013-02-21 00:37:00,
2013-02-20 19:42:00,22.2,14.2,30.24,NNW,346,17.3,17.3,71,0.00,CLR,,0.00,0.0,WeatherDisplay:10.37,2013-02-21 00:42:00,
2013-02-20 19:47:00,22.1,14.1,30.24,NNW,343,12.7,12.7,71,0.00,CLR,,0.00,0.0,WeatherDisplay:10.37,2013-02-21 00:47:00,
2013-02-20 19:52:00,22.1,14.1,30.24,WNW,290,17.3,17.3,71,0.00,CLR,,0.00,0.0,WeatherDisplay:10.37,2013-02-21 00:52:00,
2013-02-20 19:57:00,22.1,14.4,30.24,WNW,298,11.5,11.5,72,0.00,CLR,,0.00,0.0,WeatherDisplay:10.37,2013-02-21 00:57:00,
2013-02-20 20:02:00,22.1,14.4,30.24,NW,326,16.1,16.1,72,0.00,CLR,,0.00,0.0,WeatherDisplay:10.37,2013-02-21 01:02:00,
2013-02-20 20:08:00,22.0,14.3,30.24,NW,324,18.4,18.4,72,0.00,CLR,,0.00,0.0,WeatherDisplay:10.37,2013-02-21 01:08:00,
2013-02-20 20:13:00,22.0,14.3,30.24,NW,325,15.0,15.0,72,0.00,CLR,,0.00,0.0,WeatherDisplay:10.37,2013-02-21 01:13:00,
2013-02-20 20:18:00,22.0,14.7,30.24,North,351,11.5,11.5,73,0.00,CLR,,0.00,0.0,WeatherDisplay:10.37,2013-02-21 01:18:00,
2013-02-20 20:23:00,21.9,14.6,30.24,NW,313,13.8,13.8,73,0.00,CLR,,0.00,0.0,WeatherDisplay:10.37,2013-02-21 01:23:00,
2013-02-20 20:28:00,21.9,14.9,30.24,NNW,348,10.4,10.4,74,0.00,CLR,,0.00,0.0,WeatherDisplay:10.37,2013-02-21 01:28:00,
2013-02-20 20:33:00,21.9,15.2,30.24,NNW,348,8.1,8.1,75,0.00,CLR,,0.00,0.0,WeatherDisplay:10.37,2013-02-21 01:33:00,
2013-02-20 20:38:00,21.8,15.4,30.24,NNW,329,16.1,16.1,76,0.00,CLR,,0.00,0.0,WeatherDisplay:10.37,2013-02-21 01:38:00,
2013-02-20 20:43:00,21.7,15.6,30.25,WNW,293,11.5,11.5,77,0.00,CLR,,0.00,0.0,WeatherDisplay:10.37,2013-02-21 01:43:00,
2013-02-20 20:48:00,21.6,15.8,30.25,WNW,303,6.9,6.9,78,0.00,CLR,,0.00,0.0,WeatherDisplay:10.37,2013-02-21 01:48:00,
2013-02-20 20:53:00,21.6,15.8,30.25,North,360,11.5,11.5,78,0.00,CLR,,0.00,0.0,WeatherDisplay:10.37,2013-02-21 01:53:00,
2013-02-20 20:58:00,21.6,15.5,30.24,NW,315,17.3,17.3,77,0.00,CLR,,0.00,0.0,WeatherDisplay:10.37,2013-02-21 01:58:00,
2013-02-20 21:03:00,21.6,15.5,30.24,NNW,328,17.0,17.0,77,0.00,CLR,,0.00,0.0,WeatherDisplay:10.37,2013-02-21 02:03:00,
2013-02-20 21:08:00,21.6,15.8,30.25,North,5,18.0,18.0,78,0.00,CLR,,0.00,0.0,WeatherDisplay:10.37,2013-02-21 02:08:00,
2013-02-20 21:13:00,21.5,15.4,30.24,NNW,339,13.8,13.8,77,0.00,CLR,,0.00,0.0,WeatherDisplay:10.37,2013-02-21 02:13:00,
2013-02-20 21:18:00,21.5,15.4,30.24,NW,310,12.0,12.0,77,0.00,CLR,,0.00,0.0,WeatherDisplay:10.37,2013-02-21 02:18:00,
2013-02-20 21:23:00,21.5,15.4,30.24,NW,320,17.3,17.3,77,0.00,CLR,,0.00,0.0,WeatherDisplay:10.37,2013-02-21 02:23:00,
2013-02-20 21:28:00,21.5,15.1,30.24,NNW,345,21.9,21.9,76,0.00,CLR,,0.00,0.0,WeatherDisplay:10.37,2013-02-21 02:28:00,
2013-02-20 21:33:00,21.5,15.1,30.25,NNW,344,11.5,11.5,76,0.00,CLR,,0.00,0.0,WeatherDisplay:10.37,2013-02-21 02:33:00,
2013-02-20 21:38:00,21.4,15.3,30.25,NW,323,12.7,12.7,77,0.00,CLR,,0.00,0.0,WeatherDisplay:10.37,2013-02-21 02:38:00,
2013-02-20 21:43:00,21.3,15.8,30.25,North,350,11.5,11.5,79,0.00,CLR,,0.00,0.0,WeatherDisplay:10.37,2013-02-21 02:43:00,
2013-02-20 21:48:00,21.2,15.7,30.25,NW,314,15.0,15.0,79,0.00,CLR,,0.00,0.0,WeatherDisplay:10.37,2013-02-21 02:48:00,
2013-02-20 21:53:00,21.2,15.7,30.25,NNW,338,13.8,13.8,79,0.00,CLR,,0.00,0.0,WeatherDisplay:10.37,2013-02-21 02:53:00,
2013-02-20 21:58:00,21.2,15.7,30.25,NW,313,11.5,11.5,79,0.00,CLR,,0.00,0.0,WeatherDisplay:10.37,2013-02-21 02:58:00,
2013-02-20 22:03:00,21.2,15.7,30.25,NW,311,10.4,10.4,79,0.00,CLR,,0.00,0.0,WeatherDisplay:10.37,2013-02-21 03:03:00,
2013-02-20 22:08:00,21.2,15.7,30.25,NW,309,16.1,16.1,79,0.00,CLR,,0.00,0.0,WeatherDisplay:10.37,2013-02-21 03:08:00,
2013-02-20 22:13:00,21.3,15.2,30.25,NW,316,20.0,20.0,77,0.00,CLR,,0.00,0.0,WeatherDisplay:10.37,2013-02-21 03:13:00,
2013-02-20 22:18:00,21.3,14.9,30.26,NNW,332,12.7,12.7,76,0.00,CLR,,0.00,0.0,WeatherDisplay:10.37,2013-02-21 03:18:00,
2013-02-20 22:23:00,21.2,14.8,30.25,NNW,336,16.1,16.1,76,0.00,CLR,,0.00,0.0,WeatherDisplay:10.37,2013-02-21 03:23:00,
2013-02-20 22:28:00,21.1,14.7,30.26,NNW,343,13.8,13.8,76,0.00,CLR,,0.00,0.0,WeatherDisplay:10.37,2013-02-21 03:28:00,
2013-02-20 22:33:00,21.1,15.0,30.26,NNW,341,11.5,11.5,77,0.00,CLR,,0.00,0.0,WeatherDisplay:10.37,2013-02-21 03:33:00,
2013-02-20 22:38:00,21.0,14.9,30.26,NNW,329,15.0,15.0,77,0.00,CLR,,0.00,0.0,WeatherDisplay:10.37,2013-02-21 03:38:00,
2013-02-20 22:43:00,20.9,15.1,30.26,NW,321,17.3,17.3,78,0.00,CLR,,0.00,0.0,WeatherDisplay:10.37,2013-02-21 03:43:00,
2013-02-20 22:48:00,20.9,14.8,30.26,North,355,21.9,21.9,77,0.00,CLR,,0.00,0.0,WeatherDisplay:10.37,2013-02-21 03:48:00,
2013-02-20 22:53:00,20.9,14.8,30.26,NW,319,16.1,16.1,77,0.00,CLR,,0.00,0.0,WeatherDisplay:10.37,2013-02-21 03:53:00,
2013-02-20 22:58:00,20.8,14.4,30.26,North,355,12.7,12.7,76,0.00,CLR,,0.00,0.0,WeatherDisplay:10.37,2013-02-21 03:58:00,
2013-02-20 23:04:00,20.7,14.3,30.26,NNW,332,19.6,19.6,76,0.00,CLR,,0.00,0.0,WeatherDisplay:10.37,2013-02-21 04:04:00,
2013-02-20 23:09:00,20.7,14.3,30.27,NNE,15,11.5,11.5,76,0.00,CLR,,0.00,0.0,WeatherDisplay:10.37,2013-02-21 04:09:00,
2013-02-20 23:14:00,20.7,14.6,30.27,NNW,341,15.0,15.0,77,0.00,CLR,,0.00,0.0,WeatherDisplay:10.37,2013-02-21 04:14:00,
2013-02-20 23:19:00,20.6,14.5,30.27,NW,317,20.7,20.7,77,0.00,CLR,,0.00,0.0,WeatherDisplay:10.37,2013-02-21 04:19:00,
2013-02-20 23:24:00,20.6,14.8,30.27,NW,318,16.1,16.1,78,0.00,CLR,,0.00,0.0,WeatherDisplay:10.37,2013-02-21 04:24:00,
2013-02-20 23:29:00,20.5,14.7,30.27,North,351,16.1,16.1,78,0.00,CLR,,0.00,0.0,WeatherDisplay:10.37,2013-02-21 04:29:00,
2013-02-20 23:34:00,20.5,14.7,30.27,NW,326,19.6,19.6,78,0.00,CLR,,0.00,0.0,WeatherDisplay:10.37,2013-02-21 04:34:00,
2013-02-20 23:39:00,20.5,15.0,30.26,NNW,335,17.3,17.3,79,0.00,CLR,,0.00,0.0,WeatherDisplay:10.37,2013-02-21 04:39:00,
2013-02-20 23:44:00,20.4,14.9,30.26,North,360,12.7,12.7,79,0.00,CLR,,0.00,0.0,WeatherDisplay:10.37,2013-02-21 04:44:00,
2013-02-20 23:49:00,20.4,15.2,30.26,North,5,12.7,12.7,80,0.00,CLR,,0.00,0.0,WeatherDisplay:10.37,2013-02-21 04:49:00,
2013-02-20 23:54:00,20.4,15.2,30.26,North,5,17.3,17.3,80,0.00,CLR,,0.00,0.0,WeatherDisplay:10.37,2013-02-21 04:54:00,
2013-02-20 23:59:00,20.4,14.9,30.26,North,5,17.3,17.3,79,0.00,CLR,,0.00,0.0,WeatherDisplay:10.37,2013-02-21 04:59:00,